sensor_id;sensor_type;location;lat;lon;timestamp;pressure;altitude;pressure_sealevel;temperature;humidity
75775;BME280;64505;51.458;7.556;2023-12-22T00:01:24;98186.56;;;4.76;100.00
75775;BME280;64505;51.458;7.556;2023-12-22T00:03:26;98174.34;;;4.70;100.00
75775;BME280;64505;51.458;7.556;2023-12-22T00:05:27;98180.81;;;4.67;100.00
75775;BME280;64505;51.458;7.556;2023-12-22T00:07:29;98189.56;;;4.61;100.00
75775;BME280;64505;51.458;7.556;2023-12-22T00:09:30;98200.13;;;4.55;100.00
75775;BME280;64505;51.458;7.556;2023-12-22T00:11:32;98203.75;;;4.54;100.00
75775;BME280;64505;51.458;7.556;2023-12-22T00:13:33;98209.22;;;4.52;100.00
75775;BME280;64505;51.458;7.556;2023-12-22T00:15:36;98215.22;;;4.53;100.00
75775;BME280;64505;51.458;7.556;2023-12-22T00:17:37;98224.47;;;4.55;100.00
75775;BME280;64505;51.458;7.556;2023-12-22T00:19:39;98209.78;;;4.54;100.00
75775;BME280;64505;51.458;7.556;2023-12-22T00:21:40;98199.06;;;4.44;100.00
75775;BME280;64505;51.458;7.556;2023-12-22T00:23:42;98208.34;;;4.40;100.00
75775;BME280;64505;51.458;7.556;2023-12-22T00:25:43;98214.03;;;4.37;100.00
75775;BME280;64505;51.458;7.556;2023-12-22T00:27:45;98211.97;;;4.39;100.00
75775;BME280;64505;51.458;7.556;2023-12-22T00:29:47;98223.03;;;4.41;100.00
75775;BME280;64505;51.458;7.556;2023-12-22T00:31:48;98216.78;;;4.42;100.00
75775;BME280;64505;51.458;7.556;2023-12-22T00:33:50;98224.06;;;4.40;100.00
75775;BME280;64505;51.458;7.556;2023-12-22T00:35:52;98234.09;;;4.43;100.00
75775;BME280;64505;51.458;7.556;2023-12-22T00:37:53;98245.72;;;4.47;100.00
75775;BME280;64505;51.458;7.556;2023-12-22T00:39:55;98255.38;;;4.46;100.00
75775;BME280;64505;51.458;7.556;2023-12-22T00:41:58;98242.38;;;4.40;100.00
75775;BME280;64505;51.458;7.556;2023-12-22T00:44:00;98255.22;;;4.41;100.00
75775;BME280;64505;51.458;7.556;2023-12-22T00:46:01;98254.00;;;4.44;100.00
75775;BME280;64505;51.458;7.556;2023-12-22T00:48:03;98255.59;;;4.45;100.00
75775;BME280;64505;51.458;7.556;2023-12-22T00:50:05;98261.63;;;4.45;100.00
75775;BME280;64505;51.458;7.556;2023-12-22T00:52:07;98268.91;;;4.43;100.00
75775;BME280;64505;51.458;7.556;2023-12-22T00:54:09;98263.31;;;4.40;100.00
75775;BME280;64505;51.458;7.556;2023-12-22T00:56:10;98266.06;;;4.45;100.00
75775;BME280;64505;51.458;7.556;2023-12-22T00:58:14;98263.69;;;4.43;100.00
75775;BME280;64505;51.458;7.556;2023-12-22T01:00:16;98267.28;;;4.42;100.00
75775;BME280;64505;51.458;7.556;2023-12-22T01:02:18;98260.09;;;4.38;100.00
75775;BME280;64505;51.458;7.556;2023-12-22T01:04:19;98261.34;;;4.35;100.00
75775;BME280;64505;51.458;7.556;2023-12-22T01:06:21;98265.78;;;4.35;100.00
75775;BME280;64505;51.458;7.556;2023-12-22T01:08:27;98257.91;;;4.35;100.00
75775;BME280;64505;51.458;7.556;2023-12-22T01:10:28;98253.13;;;4.32;100.00
75775;BME280;64505;51.458;7.556;2023-12-22T01:12:30;98263.16;;;4.35;100.00
75775;BME280;64505;51.458;7.556;2023-12-22T01:14:32;98271.00;;;4.35;100.00
75775;BME280;64505;51.458;7.556;2023-12-22T01:16:34;98273.41;;;4.36;100.00
75775;BME280;64505;51.458;7.556;2023-12-22T01:18:35;98283.88;;;4.36;100.00
75775;BME280;64505;51.458;7.556;2023-12-22T01:20:37;98282.28;;;4.35;100.00
75775;BME280;64505;51.458;7.556;2023-12-22T01:22:38;98278.41;;;4.38;100.00
75775;BME280;64505;51.458;7.556;2023-12-22T01:24:40;98285.50;;;4.37;100.00
75775;BME280;64505;51.458;7.556;2023-12-22T01:26:44;98284.97;;;4.47;100.00
75775;BME280;64505;51.458;7.556;2023-12-22T01:28:45;98283.16;;;4.47;100.00
75775;BME280;64505;51.458;7.556;2023-12-22T01:30:47;98288.41;;;4.47;100.00
75775;BME280;64505;51.458;7.556;2023-12-22T01:32:48;98292.59;;;4.48;100.00
75775;BME280;64505;51.458;7.556;2023-12-22T01:34:50;98293.75;;;4.53;100.00
75775;BME280;64505;51.458;7.556;2023-12-22T01:36:52;98293.47;;;4.61;100.00
75775;BME280;64505;51.458;7.556;2023-12-22T01:38:53;98284.25;;;4.58;100.00
75775;BME280;64505;51.458;7.556;2023-12-22T01:40:55;98306.56;;;4.61;100.00
75775;BME280;64505;51.458;7.556;2023-12-22T01:42:56;98284.44;;;4.57;100.00
75775;BME280;64505;51.458;7.556;2023-12-22T01:44:58;98301.31;;;4.61;100.00
75775;BME280;64505;51.458;7.556;2023-12-22T01:46:59;98302.50;;;4.65;100.00
75775;BME280;64505;51.458;7.556;2023-12-22T01:49:01;98310.72;;;4.68;100.00
75775;BME280;64505;51.458;7.556;2023-12-22T01:51:04;98311.97;;;4.66;100.00
75775;BME280;64505;51.458;7.556;2023-12-22T01:53:06;98319.13;;;4.70;100.00
75775;BME280;64505;51.458;7.556;2023-12-22T01:55:10;98320.44;;;4.79;100.00
75775;BME280;64505;51.458;7.556;2023-12-22T01:57:15;98326.94;;;4.77;100.00
75775;BME280;64505;51.458;7.556;2023-12-22T01:59:19;98318.84;;;4.78;100.00
75775;BME280;64505;51.458;7.556;2023-12-22T02:01:20;98301.31;;;4.79;100.00
75775;BME280;64505;51.458;7.556;2023-12-22T02:03:22;98309.69;;;4.87;100.00
75775;BME280;64505;51.458;7.556;2023-12-22T02:05:24;98327.66;;;4.84;100.00
75775;BME280;64505;51.458;7.556;2023-12-22T02:07:26;98328.66;;;4.83;100.00
75775;BME280;64505;51.458;7.556;2023-12-22T02:09:28;98327.88;;;4.82;100.00
75775;BME280;64505;51.458;7.556;2023-12-22T02:11:30;98309.53;;;4.82;100.00
75775;BME280;64505;51.458;7.556;2023-12-22T02:13:31;98305.53;;;4.80;100.00
75775;BME280;64505;51.458;7.556;2023-12-22T02:15:33;98317.19;;;4.84;100.00
75775;BME280;64505;51.458;7.556;2023-12-22T02:22:03;98303.13;;;4.78;100.00
75775;BME280;64505;51.458;7.556;2023-12-22T02:24:09;98299.28;;;4.81;100.00
75775;BME280;64505;51.458;7.556;2023-12-22T02:26:36;98293.47;;;4.79;100.00
75775;BME280;64505;51.458;7.556;2023-12-22T02:28:39;98291.66;;;4.79;100.00
75775;BME280;64505;51.458;7.556;2023-12-22T02:30:52;98301.41;;;4.72;100.00
75775;BME280;64505;51.458;7.556;2023-12-22T02:32:59;98305.28;;;4.70;100.00
75775;BME280;64505;51.458;7.556;2023-12-22T02:35:05;98306.94;;;4.64;100.00
75775;BME280;64505;51.458;7.556;2023-12-22T02:37:09;98316.03;;;4.62;100.00
75775;BME280;64505;51.458;7.556;2023-12-22T02:39:13;98304.53;;;4.63;100.00
75775;BME280;64505;51.458;7.556;2023-12-22T02:41:16;98321.34;;;4.55;100.00
75775;BME280;64505;51.458;7.556;2023-12-22T02:43:17;98314.66;;;4.59;100.00
75775;BME280;64505;51.458;7.556;2023-12-22T02:45:19;98315.88;;;4.57;100.00
75775;BME280;64505;51.458;7.556;2023-12-22T02:47:21;98312.69;;;4.55;100.00
75775;BME280;64505;51.458;7.556;2023-12-22T02:49:22;98314.69;;;4.53;100.00
75775;BME280;64505;51.458;7.556;2023-12-22T02:51:24;98328.03;;;4.51;100.00
75775;BME280;64505;51.458;7.556;2023-12-22T02:53:25;98308.97;;;4.44;100.00
75775;BME280;64505;51.458;7.556;2023-12-22T02:55:27;98307.56;;;4.41;100.00
75775;BME280;64505;51.458;7.556;2023-12-22T02:57:29;98312.81;;;4.41;100.00
75775;BME280;64505;51.458;7.556;2023-12-22T02:59:30;98305.97;;;4.40;100.00
75775;BME280;64505;51.458;7.556;2023-12-22T03:01:32;98307.94;;;4.45;100.00
75775;BME280;64505;51.458;7.556;2023-12-22T03:03:33;98311.16;;;4.47;100.00
75775;BME280;64505;51.458;7.556;2023-12-22T03:05:35;98311.72;;;4.49;100.00
75775;BME280;64505;51.458;7.556;2023-12-22T03:07:36;98324.81;;;4.49;100.00
75775;BME280;64505;51.458;7.556;2023-12-22T03:09:39;98327.66;;;4.47;100.00
75775;BME280;64505;51.458;7.556;2023-12-22T03:11:41;98330.63;;;4.51;100.00
75775;BME280;64505;51.458;7.556;2023-12-22T03:13:42;98328.66;;;4.46;100.00
75775;BME280;64505;51.458;7.556;2023-12-22T03:15:44;98346.63;;;4.43;100.00
75775;BME280;64505;51.458;7.556;2023-12-22T03:17:45;98320.88;;;4.40;100.00
75775;BME280;64505;51.458;7.556;2023-12-22T03:19:47;98328.88;;;4.45;100.00
75775;BME280;64505;51.458;7.556;2023-12-22T03:21:49;98311.22;;;4.40;100.00
75775;BME280;64505;51.458;7.556;2023-12-22T03:23:50;98323.25;;;4.41;100.00
75775;BME280;64505;51.458;7.556;2023-12-22T03:25:51;98330.84;;;4.50;100.00
75775;BME280;64505;51.458;7.556;2023-12-22T03:27:53;98320.38;;;4.50;100.00
75775;BME280;64505;51.458;7.556;2023-12-22T03:29:55;98316.94;;;4.49;100.00
75775;BME280;64505;51.458;7.556;2023-12-22T03:31:56;98322.72;;;4.58;100.00
75775;BME280;64505;51.458;7.556;2023-12-22T03:33:58;98327.13;;;4.57;100.00
75775;BME280;64505;51.458;7.556;2023-12-22T03:36:00;98336.25;;;4.55;100.00
75775;BME280;64505;51.458;7.556;2023-12-22T03:38:01;98324.75;;;4.56;100.00
75775;BME280;64505;51.458;7.556;2023-12-22T03:40:03;98319.22;;;4.64;100.00
75775;BME280;64505;51.458;7.556;2023-12-22T03:42:05;98329.31;;;4.60;100.00
75775;BME280;64505;51.458;7.556;2023-12-22T03:44:06;98318.03;;;4.60;100.00
75775;BME280;64505;51.458;7.556;2023-12-22T03:46:08;98347.06;;;4.58;100.00
75775;BME280;64505;51.458;7.556;2023-12-22T03:48:10;98335.97;;;4.63;100.00
75775;BME280;64505;51.458;7.556;2023-12-22T03:50:11;98321.69;;;4.59;100.00
75775;BME280;64505;51.458;7.556;2023-12-22T03:52:13;98319.44;;;4.62;100.00
75775;BME280;64505;51.458;7.556;2023-12-22T03:54:15;98341.56;;;4.66;100.00
75775;BME280;64505;51.458;7.556;2023-12-22T03:56:18;98334.28;;;4.68;100.00
75775;BME280;64505;51.458;7.556;2023-12-22T03:58:20;98321.81;;;4.64;100.00
75775;BME280;64505;51.458;7.556;2023-12-22T04:00:22;98328.66;;;4.65;100.00
75775;BME280;64505;51.458;7.556;2023-12-22T04:02:23;98343.22;;;4.61;100.00
75775;BME280;64505;51.458;7.556;2023-12-22T04:04:25;98336.38;;;4.60;100.00
75775;BME280;64505;51.458;7.556;2023-12-22T04:06:28;98325.97;;;4.53;100.00
75775;BME280;64505;51.458;7.556;2023-12-22T04:08:30;98334.75;;;4.22;100.00
75775;BME280;64505;51.458;7.556;2023-12-22T04:10:32;98357.13;;;4.18;100.00
75775;BME280;64505;51.458;7.556;2023-12-22T04:12:33;98369.56;;;4.23;100.00
75775;BME280;64505;51.458;7.556;2023-12-22T04:14:34;98372.75;;;4.25;100.00
75775;BME280;64505;51.458;7.556;2023-12-22T04:16:37;98375.16;;;4.26;100.00
75775;BME280;64505;51.458;7.556;2023-12-22T04:18:39;98356.84;;;4.26;100.00
75775;BME280;64505;51.458;7.556;2023-12-22T04:20:41;98352.19;;;4.28;100.00
75775;BME280;64505;51.458;7.556;2023-12-22T04:22:43;98373.50;;;4.32;100.00
75775;BME280;64505;51.458;7.556;2023-12-22T04:24:44;98350.94;;;4.31;100.00
75775;BME280;64505;51.458;7.556;2023-12-22T04:26:46;98354.97;;;4.33;100.00
75775;BME280;64505;51.458;7.556;2023-12-22T04:28:47;98370.56;;;4.22;100.00
75775;BME280;64505;51.458;7.556;2023-12-22T04:30:49;98350.13;;;4.12;100.00
75775;BME280;64505;51.458;7.556;2023-12-22T04:32:51;98362.19;;;4.13;100.00
75775;BME280;64505;51.458;7.556;2023-12-22T04:34:53;98393.00;;;4.11;100.00
75775;BME280;64505;51.458;7.556;2023-12-22T04:36:54;98373.31;;;4.09;100.00
75775;BME280;64505;51.458;7.556;2023-12-22T04:38:56;98366.66;;;4.06;100.00
75775;BME280;64505;51.458;7.556;2023-12-22T04:40:57;98362.66;;;4.04;100.00
75775;BME280;64505;51.458;7.556;2023-12-22T04:42:59;98393.44;;;4.02;100.00
75775;BME280;64505;51.458;7.556;2023-12-22T04:45:00;98376.31;;;4.06;100.00
75775;BME280;64505;51.458;7.556;2023-12-22T04:47:02;98358.25;;;4.04;100.00
75775;BME280;64505;51.458;7.556;2023-12-22T04:49:04;98402.75;;;3.97;100.00
75775;BME280;64505;51.458;7.556;2023-12-22T04:51:05;98369.75;;;3.96;100.00
75775;BME280;64505;51.458;7.556;2023-12-22T04:53:07;98376.19;;;4.01;100.00
75775;BME280;64505;51.458;7.556;2023-12-22T04:55:08;98383.22;;;4.00;100.00
75775;BME280;64505;51.458;7.556;2023-12-22T04:57:10;98377.81;;;3.95;100.00
75775;BME280;64505;51.458;7.556;2023-12-22T04:59:11;98358.31;;;3.97;100.00
75775;BME280;64505;51.458;7.556;2023-12-22T05:01:13;98387.47;;;3.94;100.00
75775;BME280;64505;51.458;7.556;2023-12-22T05:03:14;98397.94;;;3.94;100.00
75775;BME280;64505;51.458;7.556;2023-12-22T05:05:16;98395.97;;;3.90;100.00
75775;BME280;64505;51.458;7.556;2023-12-22T05:07:17;98410.06;;;3.89;100.00
75775;BME280;64505;51.458;7.556;2023-12-22T05:09:19;98396.41;;;3.87;100.00
75775;BME280;64505;51.458;7.556;2023-12-22T05:11:21;98397.06;;;3.76;100.00
75775;BME280;64505;51.458;7.556;2023-12-22T05:13:22;98395.63;;;3.80;100.00
75775;BME280;64505;51.458;7.556;2023-12-22T05:15:24;98400.66;;;3.81;100.00
75775;BME280;64505;51.458;7.556;2023-12-22T05:17:25;98394.19;;;3.84;100.00
75775;BME280;64505;51.458;7.556;2023-12-22T05:19:27;98401.25;;;3.83;100.00
75775;BME280;64505;51.458;7.556;2023-12-22T05:21:28;98398.44;;;3.78;100.00
75775;BME280;64505;51.458;7.556;2023-12-22T05:23:31;98400.84;;;3.80;100.00
75775;BME280;64505;51.458;7.556;2023-12-22T05:25:32;98401.28;;;3.77;100.00
75775;BME280;64505;51.458;7.556;2023-12-22T05:27:34;98411.09;;;3.81;100.00
75775;BME280;64505;51.458;7.556;2023-12-22T05:29:35;98405.28;;;3.79;100.00
75775;BME280;64505;51.458;7.556;2023-12-22T05:31:38;98417.34;;;3.80;100.00
75775;BME280;64505;51.458;7.556;2023-12-22T05:33:40;98421.19;;;3.78;100.00
75775;BME280;64505;51.458;7.556;2023-12-22T05:35:41;98413.91;;;3.80;100.00
75775;BME280;64505;51.458;7.556;2023-12-22T05:37:43;98410.91;;;3.83;100.00
75775;BME280;64505;51.458;7.556;2023-12-22T05:39:45;98409.66;;;3.85;100.00
75775;BME280;64505;51.458;7.556;2023-12-22T05:41:46;98407.47;;;3.82;100.00
75775;BME280;64505;51.458;7.556;2023-12-22T05:43:48;98414.69;;;3.87;100.00
75775;BME280;64505;51.458;7.556;2023-12-22T05:45:49;98411.47;;;3.85;100.00
75775;BME280;64505;51.458;7.556;2023-12-22T05:47:51;98415.91;;;3.84;100.00
75775;BME280;64505;51.458;7.556;2023-12-22T05:49:53;98420.50;;;3.89;100.00
75775;BME280;64505;51.458;7.556;2023-12-22T05:51:54;98440.84;;;3.87;100.00
75775;BME280;64505;51.458;7.556;2023-12-22T05:53:56;98429.16;;;3.89;100.00
75775;BME280;64505;51.458;7.556;2023-12-22T05:55:57;98429.53;;;3.93;100.00
75775;BME280;64505;51.458;7.556;2023-12-22T05:57:59;98437.97;;;3.95;100.00
75775;BME280;64505;51.458;7.556;2023-12-22T06:00:00;98435.53;;;4.00;100.00
75775;BME280;64505;51.458;7.556;2023-12-22T06:02:02;98443.56;;;3.98;100.00
75775;BME280;64505;51.458;7.556;2023-12-22T06:04:04;98438.72;;;4.02;100.00
75775;BME280;64505;51.458;7.556;2023-12-22T06:06:07;98442.94;;;4.03;100.00
75775;BME280;64505;51.458;7.556;2023-12-22T06:08:08;98440.94;;;4.05;100.00
75775;BME280;64505;51.458;7.556;2023-12-22T06:10:11;98459.81;;;4.07;100.00
75775;BME280;64505;51.458;7.556;2023-12-22T06:12:12;98444.72;;;4.09;100.00
75775;BME280;64505;51.458;7.556;2023-12-22T06:14:14;98442.09;;;4.09;100.00
75775;BME280;64505;51.458;7.556;2023-12-22T06:16:16;98459.78;;;4.14;100.00
75775;BME280;64505;51.458;7.556;2023-12-22T06:18:19;98463.13;;;4.21;100.00
75775;BME280;64505;51.458;7.556;2023-12-22T06:20:21;98466.38;;;4.16;100.00
75775;BME280;64505;51.458;7.556;2023-12-22T06:22:23;98474.03;;;4.18;100.00
75775;BME280;64505;51.458;7.556;2023-12-22T06:24:24;98461.75;;;4.18;100.00
75775;BME280;64505;51.458;7.556;2023-12-22T06:26:26;98465.38;;;4.17;100.00
75775;BME280;64505;51.458;7.556;2023-12-22T06:28:27;98459.72;;;4.20;100.00
75775;BME280;64505;51.458;7.556;2023-12-22T06:30:29;98476.84;;;4.23;100.00
75775;BME280;64505;51.458;7.556;2023-12-22T06:32:31;98466.75;;;4.20;100.00
75775;BME280;64505;51.458;7.556;2023-12-22T06:34:34;98471.22;;;4.19;100.00
75775;BME280;64505;51.458;7.556;2023-12-22T06:36:36;98478.03;;;4.20;100.00
75775;BME280;64505;51.458;7.556;2023-12-22T06:38:37;98483.50;;;4.19;100.00
75775;BME280;64505;51.458;7.556;2023-12-22T06:40:38;98469.81;;;4.17;100.00
75775;BME280;64505;51.458;7.556;2023-12-22T06:42:40;98467.41;;;4.15;100.00
75775;BME280;64505;51.458;7.556;2023-12-22T06:44:42;98474.47;;;4.15;100.00
75775;BME280;64505;51.458;7.556;2023-12-22T06:46:44;98465.63;;;4.16;100.00
75775;BME280;64505;51.458;7.556;2023-12-22T06:48:46;98466.63;;;4.15;100.00
75775;BME280;64505;51.458;7.556;2023-12-22T06:50:48;98465.38;;;4.17;100.00
75775;BME280;64505;51.458;7.556;2023-12-22T06:52:49;98469.19;;;4.21;100.00
75775;BME280;64505;51.458;7.556;2023-12-22T06:54:52;98470.78;;;4.22;100.00
75775;BME280;64505;51.458;7.556;2023-12-22T06:56:54;98474.38;;;4.28;100.00
75775;BME280;64505;51.458;7.556;2023-12-22T06:58:57;98466.75;;;4.26;100.00
75775;BME280;64505;51.458;7.556;2023-12-22T07:00:59;98473.41;;;4.22;100.00
75775;BME280;64505;51.458;7.556;2023-12-22T07:03:00;98466.75;;;4.26;100.00
75775;BME280;64505;51.458;7.556;2023-12-22T07:07:28;98469.56;;;4.25;100.00
75775;BME280;64505;51.458;7.556;2023-12-22T07:09:31;98465.72;;;4.27;100.00
75775;BME280;64505;51.458;7.556;2023-12-22T07:11:32;98450.00;;;4.27;100.00
75775;BME280;64505;51.458;7.556;2023-12-22T07:13:38;98450.19;;;4.32;100.00
75775;BME280;64505;51.458;7.556;2023-12-22T07:15:40;98454.41;;;4.33;100.00
75775;BME280;64505;51.458;7.556;2023-12-22T07:17:42;98460.66;;;4.32;100.00
75775;BME280;64505;51.458;7.556;2023-12-22T07:19:44;98465.03;;;4.38;100.00
75775;BME280;64505;51.458;7.556;2023-12-22T07:21:45;98438.66;;;4.40;100.00
75775;BME280;64505;51.458;7.556;2023-12-22T07:23:48;98423.16;;;4.38;100.00
75775;BME280;64505;51.458;7.556;2023-12-22T07:25:49;98427.56;;;4.38;100.00
75775;BME280;64505;51.458;7.556;2023-12-22T07:27:51;98443.28;;;4.38;100.00
75775;BME280;64505;51.458;7.556;2023-12-22T07:29:53;98434.38;;;4.45;100.00
75775;BME280;64505;51.458;7.556;2023-12-22T07:31:57;98426.75;;;4.44;100.00
75775;BME280;64505;51.458;7.556;2023-12-22T07:34:01;98428.56;;;4.43;100.00
75775;BME280;64505;51.458;7.556;2023-12-22T07:36:02;98441.41;;;4.45;100.00
75775;BME280;64505;51.458;7.556;2023-12-22T07:38:06;98463.97;;;4.46;100.00
75775;BME280;64505;51.458;7.556;2023-12-22T07:40:08;98443.38;;;4.50;100.00
75775;BME280;64505;51.458;7.556;2023-12-22T07:42:10;98447.00;;;4.48;100.00
75775;BME280;64505;51.458;7.556;2023-12-22T07:44:12;98458.28;;;4.49;100.00
75775;BME280;64505;51.458;7.556;2023-12-22T07:46:18;98459.09;;;4.50;100.00
75775;BME280;64505;51.458;7.556;2023-12-22T07:48:20;98482.22;;;4.53;100.00
75775;BME280;64505;51.458;7.556;2023-12-22T07:50:21;98484.44;;;4.56;100.00
75775;BME280;64505;51.458;7.556;2023-12-22T07:52:23;98476.16;;;4.59;100.00
75775;BME280;64505;51.458;7.556;2023-12-22T07:54:24;98456.38;;;4.63;100.00
75775;BME280;64505;51.458;7.556;2023-12-22T07:56:27;98432.81;;;4.63;100.00
75775;BME280;64505;51.458;7.556;2023-12-22T07:58:28;98447.28;;;4.65;100.00
75775;BME280;64505;51.458;7.556;2023-12-22T08:00:30;98430.34;;;4.68;100.00
75775;BME280;64505;51.458;7.556;2023-12-22T08:02:31;98427.53;;;4.69;100.00
75775;BME280;64505;51.458;7.556;2023-12-22T08:04:33;98416.00;;;4.70;100.00
75775;BME280;64505;51.458;7.556;2023-12-22T08:06:35;98420.84;;;4.73;100.00
75775;BME280;64505;51.458;7.556;2023-12-22T08:08:37;98407.31;;;4.76;100.00
75775;BME280;64505;51.458;7.556;2023-12-22T08:10:38;98417.72;;;4.83;100.00
75775;BME280;64505;51.458;7.556;2023-12-22T08:12:40;98417.88;;;4.88;100.00
75775;BME280;64505;51.458;7.556;2023-12-22T08:14:41;98415.63;;;4.91;100.00
75775;BME280;64505;51.458;7.556;2023-12-22T08:16:43;98425.28;;;4.91;100.00
75775;BME280;64505;51.458;7.556;2023-12-22T08:18:45;98406.97;;;4.91;100.00
75775;BME280;64505;51.458;7.556;2023-12-22T08:20:47;98403.63;;;5.02;100.00
75775;BME280;64505;51.458;7.556;2023-12-22T08:22:51;98403.16;;;5.05;100.00
75775;BME280;64505;51.458;7.556;2023-12-22T08:24:55;98393.50;;;5.06;100.00
75775;BME280;64505;51.458;7.556;2023-12-22T08:26:57;98407.88;;;5.15;100.00
75775;BME280;64505;51.458;7.556;2023-12-22T08:28:58;98402.19;;;5.18;100.00
75775;BME280;64505;51.458;7.556;2023-12-22T08:31:00;98411.81;;;5.24;100.00
75775;BME280;64505;51.458;7.556;2023-12-22T08:33:02;98398.47;;;5.25;100.00
75775;BME280;64505;51.458;7.556;2023-12-22T08:35:04;98397.63;;;5.31;100.00
75775;BME280;64505;51.458;7.556;2023-12-22T08:37:09;98394.25;;;5.42;100.00
75775;BME280;64505;51.458;7.556;2023-12-22T08:39:10;98398.41;;;5.62;100.00
75775;BME280;64505;51.458;7.556;2023-12-22T08:41:12;98378.84;;;5.64;100.00
75775;BME280;64505;51.458;7.556;2023-12-22T08:43:15;98386.00;;;5.69;100.00
75775;BME280;64505;51.458;7.556;2023-12-22T08:45:17;98375.53;;;5.69;100.00
75775;BME280;64505;51.458;7.556;2023-12-22T08:47:18;98383.66;;;5.79;100.00
75775;BME280;64505;51.458;7.556;2023-12-22T08:49:20;98391.38;;;5.92;100.00
75775;BME280;64505;51.458;7.556;2023-12-22T08:51:23;98422.28;;;6.02;100.00
75775;BME280;64505;51.458;7.556;2023-12-22T08:53:25;98414.78;;;6.05;100.00
75775;BME280;64505;51.458;7.556;2023-12-22T08:55:27;98410.13;;;6.07;100.00
75775;BME280;64505;51.458;7.556;2023-12-22T08:57:28;98428.03;;;6.10;100.00
75775;BME280;64505;51.458;7.556;2023-12-22T08:59:30;98432.47;;;6.10;100.00
75775;BME280;64505;51.458;7.556;2023-12-22T09:01:31;98432.81;;;6.13;100.00
75775;BME280;64505;51.458;7.556;2023-12-22T09:03:33;98434.88;;;6.11;100.00
75775;BME280;64505;51.458;7.556;2023-12-22T09:05:35;98451.19;;;6.13;100.00
75775;BME280;64505;51.458;7.556;2023-12-22T09:07:36;98446.09;;;6.18;100.00
75775;BME280;64505;51.458;7.556;2023-12-22T09:09:38;98433.97;;;6.17;100.00
75775;BME280;64505;51.458;7.556;2023-12-22T09:11:39;98444.59;;;6.22;100.00
75775;BME280;64505;51.458;7.556;2023-12-22T09:13:41;98432.63;;;6.26;100.00
75775;BME280;64505;51.458;7.556;2023-12-22T09:15:43;98435.03;;;6.28;100.00
75775;BME280;64505;51.458;7.556;2023-12-22T09:17:47;98421.66;;;6.29;100.00
75775;BME280;64505;51.458;7.556;2023-12-22T09:19:49;98423.97;;;6.37;100.00
75775;BME280;64505;51.458;7.556;2023-12-22T09:21:51;98425.78;;;6.37;100.00
75775;BME280;64505;51.458;7.556;2023-12-22T09:23:52;98417.22;;;6.41;100.00
75775;BME280;64505;51.458;7.556;2023-12-22T09:25:54;98419.63;;;6.43;100.00
75775;BME280;64505;51.458;7.556;2023-12-22T09:27:56;98439.38;;;6.46;100.00
75775;BME280;64505;51.458;7.556;2023-12-22T09:29:57;98420.09;;;6.52;100.00
75775;BME280;64505;51.458;7.556;2023-12-22T09:31:59;98415.41;;;6.54;100.00
75775;BME280;64505;51.458;7.556;2023-12-22T09:34:01;98410.72;;;6.56;100.00
75775;BME280;64505;51.458;7.556;2023-12-22T09:36:03;98425.47;;;6.57;100.00
75775;BME280;64505;51.458;7.556;2023-12-22T09:38:05;98429.34;;;6.54;100.00
75775;BME280;64505;51.458;7.556;2023-12-22T09:40:07;98433.00;;;6.53;100.00
75775;BME280;64505;51.458;7.556;2023-12-22T09:42:11;98433.81;;;6.54;100.00
75775;BME280;64505;51.458;7.556;2023-12-22T09:44:13;98429.00;;;6.51;100.00
75775;BME280;64505;51.458;7.556;2023-12-22T09:46:16;98415.88;;;6.51;100.00
75775;BME280;64505;51.458;7.556;2023-12-22T09:48:20;98419.75;;;6.48;100.00
75775;BME280;64505;51.458;7.556;2023-12-22T09:50:28;98431.72;;;6.44;100.00
75775;BME280;64505;51.458;7.556;2023-12-22T09:52:31;98413.59;;;6.42;100.00
75775;BME280;64505;51.458;7.556;2023-12-22T09:54:33;98446.34;;;6.28;100.00
75775;BME280;64505;51.458;7.556;2023-12-22T09:56:37;98416.53;;;6.34;100.00
75775;BME280;64505;51.458;7.556;2023-12-22T09:58:43;98399.41;;;9.73;100.00
75775;BME280;64505;51.458;7.556;2023-12-22T10:00:48;98378.44;;;10.15;100.00
75775;BME280;64505;51.458;7.556;2023-12-22T10:02:49;98377.69;;;9.18;100.00
75775;BME280;64505;51.458;7.556;2023-12-22T10:04:51;98386.31;;;8.92;100.00
75775;BME280;64505;51.458;7.556;2023-12-22T10:06:53;98377.66;;;8.74;100.00
75775;BME280;64505;51.458;7.556;2023-12-22T10:08:58;98381.56;;;8.72;100.00
75775;BME280;64505;51.458;7.556;2023-12-22T10:11:00;98385.84;;;8.56;100.00
75775;BME280;64505;51.458;7.556;2023-12-22T10:13:02;98399.59;;;8.80;100.00
75775;BME280;64505;51.458;7.556;2023-12-22T10:15:07;98385.31;;;8.76;100.00
75775;BME280;64505;51.458;7.556;2023-12-22T10:17:10;98370.44;;;8.48;100.00
75775;BME280;64505;51.458;7.556;2023-12-22T10:19:12;98372.66;;;8.56;100.00
75775;BME280;64505;51.458;7.556;2023-12-22T10:21:14;98382.34;;;8.89;100.00
75775;BME280;64505;51.458;7.556;2023-12-22T10:23:16;98367.13;;;8.74;100.00
75775;BME280;64505;51.458;7.556;2023-12-22T10:25:20;98364.84;;;8.83;100.00
75775;BME280;64505;51.458;7.556;2023-12-22T10:27:23;98364.69;;;8.89;100.00
75775;BME280;64505;51.458;7.556;2023-12-22T10:29:25;98361.00;;;8.90;100.00
75775;BME280;64505;51.458;7.556;2023-12-22T10:31:26;98365.53;;;8.95;100.00
75775;BME280;64505;51.458;7.556;2023-12-22T10:33:29;98349.97;;;8.94;100.00
75775;BME280;64505;51.458;7.556;2023-12-22T10:35:31;98341.59;;;8.97;100.00
75775;BME280;64505;51.458;7.556;2023-12-22T10:37:32;98338.66;;;8.93;100.00
75775;BME280;64505;51.458;7.556;2023-12-22T10:39:36;98336.47;;;8.90;100.00
75775;BME280;64505;51.458;7.556;2023-12-22T10:41:37;98326.91;;;8.84;100.00
75775;BME280;64505;51.458;7.556;2023-12-22T10:43:39;98332.25;;;8.89;100.00
75775;BME280;64505;51.458;7.556;2023-12-22T10:45:42;98328.53;;;8.85;100.00
75775;BME280;64505;51.458;7.556;2023-12-22T10:47:43;98327.19;;;8.82;100.00
75775;BME280;64505;51.458;7.556;2023-12-22T10:49:46;98334.09;;;8.88;100.00
75775;BME280;64505;51.458;7.556;2023-12-22T10:51:47;98343.91;;;8.71;100.00
75775;BME280;64505;51.458;7.556;2023-12-22T10:53:49;98332.56;;;8.71;100.00